Terminal Aerodrome Forecast
Issued by NWS

Home | Current Version | Previous Version | Text Only | Print | Product List | Glossary On
Versions: 1 2 3 4 5 6 7 8 9 10 11 12 13 14 15 16 17 18 19 20 21 22 23 24 25
000
FTUS46 KSGX 042322
TAFSAN
TAF
KSAN 042322Z 0500/0606 30011KT P6SM SKC
     FM050200 31006KT P6SM SKC
     FM050700 VRB03KT P6SM BKN010
     FM051600 VRB04KT P6SM SCT012
     FM051900 29010KT P6SM SKC
     FM060200 VRB03KT P6SM SCT012=

USA.gov is the U.S. government's official web portal to all federal, state and local government web resources and services.